Aviation Digital Data Service (ADDS)

Output produced by METARs form (1206 UTC 23 August 2017)
found at http://aviationweather.gov/adds/metars/
 
KPHX 231201Z 2312/2418 10005KT P6SM SCT150 SCT250 
     TEMPO 2312/2315 BKN130 BKN250 
     FM232100 26007KT P6SM FEW100 SCT250 
     FM240300 14014G22KT P6SM VCSH BKN080 BKN200 
     FM240800 11006KT P6SM FEW080 BKN140 BKN200